Time;durP1;ratioP1;P1;durP2;ratioP2;P2;SDS_P1;SDS_P2;PMS_P1;PMS_P2;Temp;Humidity;BMP_temperature;BMP_pressure;BME280_temperature;BME280_humidity;BME280_pressure;Samples;Min_cycle;Max_cycle;Signal;HPM_P1;HPM_P2
2024/02/17 00:00:50;;;;;;;8.48;4.97;;;;;;;12.18;100.00;101166.50;5208386;28;20035;-75
2024/02/17 00:03:23;;;;;;;11.00;5.70;;;;;;;12.24;100.00;101166.28;5186750;28;20041;-75
2024/02/17 00:05:53;;;;;;;11.05;5.47;;;;;;;12.21;100.00;101162.88;5208462;28;20158;-76
2024/02/17 00:08:24;;;;;;;9.70;5.57;;;;;;;12.19;100.00;101173.44;5188051;28;20546;-75
2024/02/17 00:10:54;;;;;;;11.10;5.53;;;;;;;12.20;100.00;101174.28;5205713;28;20033;-75
2024/02/17 00:13:25;;;;;;;11.50;5.57;;;;;;;12.24;100.00;101178.50;5213973;28;20028;-75
2024/02/17 00:15:55;;;;;;;9.90;5.60;;;;;;;12.23;100.00;101172.44;5209888;28;20122;-73
2024/02/17 00:18:28;;;;;;;10.63;6.00;;;;;;;12.32;100.00;101179.97;5206766;28;20083;-76
2024/02/17 00:21:03;;;;;;;10.05;5.55;;;;;;;12.16;100.00;101180.53;5192372;28;20460;-76
2024/02/17 00:23:33;;;;;;;10.63;5.97;;;;;;;12.20;100.00;101185.63;5210654;28;20415;-76
2024/02/17 00:26:04;;;;;;;11.00;6.00;;;;;;;12.24;100.00;101184.63;5187421;28;20048;-76
2024/02/17 00:28:34;;;;;;;12.85;6.28;;;;;;;12.23;100.00;101185.53;5203231;28;20033;-76
2024/02/17 00:31:04;;;;;;;9.98;5.60;;;;;;;12.29;100.00;101185.31;5206002;28;20025;-76
2024/02/17 00:33:37;;;;;;;12.23;6.15;;;;;;;12.25;100.00;101188.09;5182763;28;20262;-76
2024/02/17 00:36:07;;;;;;;12.27;6.25;;;;;;;12.32;100.00;101194.84;5198611;28;20033;-75
2024/02/17 00:38:38;;;;;;;10.38;5.93;;;;;;;12.27;100.00;101194.16;5198161;28;20025;-76
2024/02/17 00:41:08;;;;;;;12.18;6.65;;;;;;;12.31;100.00;101195.78;5199417;28;20573;-76
2024/02/17 00:43:39;;;;;;;12.45;7.07;;;;;;;12.21;100.00;101194.34;5206439;28;20080;-75
2024/02/17 00:46:09;;;;;;;13.75;7.35;;;;;;;12.22;100.00;101199.53;5200313;28;20030;-75
2024/02/17 00:48:40;;;;;;;13.45;7.00;;;;;;;12.22;100.00;101196.06;5205627;28;20021;-76
2024/02/17 00:51:12;;;;;;;13.15;7.72;;;;;;;12.17;100.00;101196.22;5204831;28;20113;-76
2024/02/17 00:53:43;;;;;;;13.77;7.47;;;;;;;12.09;100.00;101197.38;5187911;28;20640;-75
2024/02/17 00:56:13;;;;;;;14.15;7.68;;;;;;;12.11;100.00;101196.41;5209148;28;20033;-76
2024/02/17 00:58:43;;;;;;;15.27;8.95;;;;;;;12.02;100.00;101201.06;5206174;28;20521;-75
2024/02/17 01:01:14;;;;;;;16.05;8.15;;;;;;;12.01;100.00;101209.84;5207750;28;20487;-75
2024/02/17 01:03:44;;;;;;;18.52;8.40;;;;;;;11.93;100.00;101199.59;5212158;28;20032;-75
2024/02/17 01:06:14;;;;;;;17.58;8.60;;;;;;;11.93;100.00;101209.25;5205671;28;20103;-76
2024/02/17 01:08:45;;;;;;;15.98;8.38;;;;;;;12.00;100.00;101210.75;5211276;28;20394;-76
2024/02/17 01:11:16;;;;;;;14.45;7.60;;;;;;;11.96;100.00;101217.84;5210287;28;20329;-75
2024/02/17 01:13:46;;;;;;;14.15;8.05;;;;;;;11.93;100.00;101214.47;5210318;28;20115;-75
2024/02/17 01:16:17;;;;;;;15.90;8.05;;;;;;;11.83;100.00;101213.91;5200340;28;20064;-76
2024/02/17 01:18:47;;;;;;;16.45;8.13;;;;;;;11.80;100.00;101216.59;5185788;28;20025;-75
2024/02/17 01:21:18;;;;;;;16.52;9.02;;;;;;;11.75;100.00;101218.50;5194666;28;20112;-76
2024/02/17 01:23:48;;;;;;;13.95;8.23;;;;;;;11.73;100.00;101220.31;5211131;28;20021;-75
2024/02/17 01:26:18;;;;;;;13.85;8.07;;;;;;;11.75;100.00;101223.72;5208821;28;20506;-76
2024/02/17 01:28:49;;;;;;;15.52;8.50;;;;;;;11.78;100.00;101223.63;5212804;28;20017;-76
2024/02/17 01:31:19;;;;;;;13.27;8.07;;;;;;;11.66;100.00;101229.25;5209187;28;20044;-76
2024/02/17 01:33:51;;;;;;;13.98;7.78;;;;;;;11.62;100.00;101234.63;5213795;28;20298;-76
2024/02/17 01:36:21;;;;;;;13.75;8.13;;;;;;;11.62;100.00;101227.63;5204767;28;20037;-73
2024/02/17 01:38:51;;;;;;;15.60;8.25;;;;;;;11.67;100.00;101238.84;5213286;28;20090;-75
2024/02/17 01:41:22;;;;;;;15.77;8.35;;;;;;;11.76;100.00;101232.47;5210368;28;20458;-76
2024/02/17 01:43:52;;;;;;;15.13;8.02;;;;;;;11.73;100.00;101235.16;5210221;28;20031;-75
2024/02/17 01:46:23;;;;;;;18.63;8.80;;;;;;;11.84;100.00;101236.56;5201545;28;20418;-74
2024/02/17 01:48:53;;;;;;;14.85;8.07;;;;;;;11.73;100.00;101246.50;5206328;28;20112;-75
2024/02/17 01:51:25;;;;;;;19.30;8.73;;;;;;;11.80;100.00;101244.56;5206273;28;20033;-76
2024/02/17 01:53:55;;;;;;;15.18;8.52;;;;;;;11.81;100.00;101243.66;5209958;28;20177;-76
2024/02/17 01:56:26;;;;;;;16.35;8.98;;;;;;;11.71;100.00;101243.06;5210837;28;20544;-76
2024/02/17 01:58:57;;;;;;;16.23;8.80;;;;;;;11.69;100.00;101249.25;5211390;28;20040;-76
2024/02/17 02:01:28;;;;;;;17.00;8.30;;;;;;;11.71;100.00;101258.78;5211507;28;20030;-76
2024/02/17 02:03:58;;;;;;;12.95;8.25;;;;;;;11.75;100.00;101249.06;5209313;28;20371;-76
2024/02/17 02:06:30;;;;;;;14.35;8.45;;;;;;;11.67;100.00;101259.78;5201902;28;20128;-76
2024/02/17 02:09:00;;;;;;;15.77;8.18;;;;;;;11.75;100.00;101265.63;5209056;28;20030;-76
2024/02/17 02:11:31;;;;;;;15.18;8.38;;;;;;;11.73;100.00;101269.19;5191823;28;20104;-76
2024/02/17 02:14:15;;;;;;;14.20;8.40;;;;;;;11.66;100.00;101271.16;5208056;28;20140;-75
2024/02/17 02:16:49;;;;;;;13.90;8.30;;;;;;;11.79;100.00;101277.72;5210147;28;20024;-75
2024/02/17 02:19:20;;;;;;;15.65;8.40;;;;;;;11.78;100.00;101276.00;5209887;28;20423;-76
2024/02/17 02:21:50;;;;;;;16.00;8.82;;;;;;;11.77;100.00;101274.31;5211948;28;20021;-75
2024/02/17 02:24:20;;;;;;;14.23;8.75;;;;;;;11.79;100.00;101272.50;5209928;28;20036;-76
2024/02/17 02:26:51;;;;;;;15.82;9.38;;;;;;;11.83;100.00;101273.28;5188766;28;20025;-75
2024/02/17 02:29:22;;;;;;;16.42;9.40;;;;;;;11.76;100.00;101271.75;5211840;28;20043;-76
2024/02/17 02:31:54;;;;;;;17.90;9.52;;;;;;;11.72;100.00;101276.19;5207058;28;20045;-76
2024/02/17 02:34:24;;;;;;;16.83;9.88;;;;;;;11.69;100.00;101271.06;5210272;28;20024;-76
2024/02/17 02:36:55;;;;;;;14.85;8.90;;;;;;;11.65;100.00;101269.41;5210323;28;20043;-73
2024/02/17 02:39:25;;;;;;;17.98;8.88;;;;;;;11.60;100.00;101268.69;5207696;28;20027;-76
2024/02/17 02:41:55;;;;;;;15.45;9.07;;;;;;;11.53;100.00;101277.59;5205768;28;20033;-75
2024/02/17 02:44:26;;;;;;;19.30;9.48;;;;;;;11.45;100.00;101276.94;5188611;28;20021;-75
2024/02/17 02:46:56;;;;;;;14.48;7.90;;;;;;;11.33;100.00;101281.66;5210560;28;20032;-75
2024/02/17 02:49:26;;;;;;;15.55;9.25;;;;;;;11.36;100.00;101279.84;5208671;28;20468;-76
2024/02/17 02:51:57;;;;;;;16.63;9.13;;;;;;;11.31;100.00;101289.53;5204951;28;20029;-76
2024/02/17 02:54:27;;;;;;;16.90;9.60;;;;;;;11.20;100.00;101286.38;5198413;28;20044;-75
2024/02/17 02:56:57;;;;;;;18.23;10.25;;;;;;;11.16;100.00;101284.75;5200330;28;20033;-76
2024/02/17 02:59:28;;;;;;;19.05;10.23;;;;;;;11.14;100.00;101291.75;5185944;28;20034;-75
2024/02/17 03:01:58;;;;;;;19.52;9.50;;;;;;;11.17;100.00;101296.06;5200844;28;20032;-76
2024/02/17 03:04:29;;;;;;;15.73;9.10;;;;;;;11.14;100.00;101311.84;5203160;28;20597;-76
2024/02/17 03:06:59;;;;;;;16.27;9.68;;;;;;;11.16;100.00;101313.53;5200379;28;20029;-76
2024/02/17 03:09:29;;;;;;;19.80;9.85;;;;;;;11.20;100.00;101309.06;5202549;28;20124;-75
2024/02/17 03:12:00;;;;;;;16.55;8.98;;;;;;;11.15;100.00;101317.03;5201310;28;20039;-75
2024/02/17 03:14:30;;;;;;;15.77;8.60;;;;;;;11.18;100.00;101318.69;5199268;28;20021;-76
2024/02/17 03:17:00;;;;;;;17.35;9.07;;;;;;;11.14;100.00;101317.91;5200190;28;20040;-75
2024/02/17 03:19:32;;;;;;;16.88;9.27;;;;;;;11.31;100.00;101309.63;5201410;28;20025;-75
2024/02/17 03:22:02;;;;;;;16.60;9.13;;;;;;;11.39;100.00;101313.75;5201608;28;20047;-75
2024/02/17 03:24:32;;;;;;;16.42;9.00;;;;;;;11.38;100.00;101324.25;5205727;28;20216;-74
2024/02/17 03:27:03;;;;;;;17.70;8.48;;;;;;;11.25;100.00;101321.13;5200233;28;20082;-75
2024/02/17 03:29:33;;;;;;;14.43;8.57;;;;;;;11.32;100.00;101327.94;5198893;28;20048;-75
2024/02/17 03:32:05;;;;;;;15.13;8.48;;;;;;;11.37;100.00;101328.66;5185033;28;20048;-75
2024/02/17 03:34:35;;;;;;;19.48;9.00;;;;;;;11.22;100.00;101326.44;5181488;28;20025;-75
2024/02/17 03:37:06;;;;;;;15.00;8.40;;;;;;;11.22;100.00;101331.66;5203471;28;20486;-74
2024/02/17 03:39:37;;;;;;;20.33;8.88;;;;;;;11.24;100.00;101327.25;5199518;28;20022;-75
2024/02/17 03:42:08;;;;;;;12.52;8.25;;;;;;;11.21;100.00;101343.03;5199559;28;20063;-75
2024/02/17 03:44:39;;;;;;;15.90;8.45;;;;;;;11.20;100.00;101343.94;5201464;28;20080;-75
2024/02/17 03:47:11;;;;;;;13.25;7.90;;;;;;;11.23;100.00;101348.22;5198273;28;20021;-75
2024/02/17 03:49:41;;;;;;;12.02;7.00;;;;;;;11.23;100.00;101353.44;5188128;28;20600;-75
2024/02/17 03:52:11;;;;;;;14.88;7.72;;;;;;;11.13;100.00;101359.84;5198098;28;20061;-75
2024/02/17 03:54:42;;;;;;;14.00;7.90;;;;;;;11.02;100.00;101361.00;5199709;28;20021;-75
2024/02/17 03:57:13;;;;;;;13.90;7.30;;;;;;;11.03;100.00;101367.06;5202560;28;20219;-75
2024/02/17 03:59:44;;;;;;;15.40;7.55;;;;;;;10.88;100.00;101377.00;5226043;23;20128;-75
2024/02/17 04:02:15;;;;;;;13.10;7.00;;;;;;;10.88;100.00;101370.94;5183569;28;20493;-75
2024/02/17 04:04:46;;;;;;;13.68;7.28;;;;;;;10.91;100.00;101381.31;5199386;28;20037;-75
2024/02/17 04:07:16;;;;;;;12.93;6.68;;;;;;;11.02;100.00;101376.69;5197149;28;20049;-75
2024/02/17 04:09:46;;;;;;;14.43;7.25;;;;;;;10.96;100.00;101376.81;5182541;28;20561;-76
2024/02/17 04:12:17;;;;;;;13.70;7.15;;;;;;;10.93;100.00;101380.41;5200258;28;20112;-74
2024/02/17 04:14:47;;;;;;;12.73;6.88;;;;;;;11.00;100.00;101388.97;5197468;28;20025;-75
2024/02/17 04:17:18;;;;;;;12.18;6.93;;;;;;;11.00;100.00;101386.34;5199764;28;20025;-74
2024/02/17 04:19:48;;;;;;;13.18;7.03;;;;;;;10.88;100.00;101391.84;5202779;28;20406;-75
2024/02/17 04:22:19;;;;;;;13.43;7.32;;;;;;;10.83;100.00;101402.41;5199350;28;20029;-74
2024/02/17 04:24:49;;;;;;;11.45;6.65;;;;;;;10.90;100.00;101406.63;5199875;28;20021;-75
2024/02/17 04:27:19;;;;;;;11.57;6.78;;;;;;;10.89;100.00;101415.34;5200134;28;20292;-74
2024/02/17 04:29:50;;;;;;;10.77;6.97;;;;;;;10.83;100.00;101418.09;5198953;28;20067;-75
2024/02/17 04:32:20;;;;;;;14.00;7.13;;;;;;;10.84;100.00;101421.59;5199454;28;20453;-75
2024/02/17 04:34:50;;;;;;;13.57;6.95;;;;;;;10.92;100.00;101430.97;5200807;28;20636;-75
2024/02/17 04:37:21;;;;;;;14.77;6.95;;;;;;;10.90;100.00;101424.06;5201469;28;20075;-75
2024/02/17 04:39:52;;;;;;;13.25;6.93;;;;;;;10.91;100.00;101426.66;5200464;28;20025;-75
2024/02/17 04:42:22;;;;;;;11.93;7.03;;;;;;;10.84;100.00;101432.06;5202859;28;20030;-75
2024/02/17 04:44:53;;;;;;;10.90;6.72;;;;;;;10.82;100.00;101433.84;5200352;28;20036;-75
2024/02/17 04:47:23;;;;;;;14.90;6.88;;;;;;;10.82;100.00;101433.84;5199205;28;20025;-75
2024/02/17 04:49:53;;;;;;;13.88;6.75;;;;;;;10.80;100.00;101446.06;5200034;28;20544;-75
2024/02/17 04:52:23;;;;;;;14.73;6.47;;;;;;;10.83;100.00;101446.88;5200688;28;20037;-75
2024/02/17 04:54:54;;;;;;;15.02;6.57;;;;;;;10.75;100.00;101453.16;5199908;28;20530;-75
2024/02/17 04:57:24;;;;;;;10.35;6.15;;;;;;;10.80;100.00;101456.53;5201649;28;20048;-75
2024/02/17 04:59:54;;;;;;;16.73;6.47;;;;;;;10.67;100.00;101457.72;5205313;28;20029;-75
2024/02/17 05:02:25;;;;;;;11.88;6.10;;;;;;;10.70;100.00;101458.50;5205761;28;20029;-75
2024/02/17 05:04:55;;;;;;;12.13;5.75;;;;;;;10.69;100.00;101461.16;5203768;28;20352;-75
2024/02/17 05:07:26;;;;;;;11.77;5.95;;;;;;;10.57;100.00;101458.78;5203388;28;20440;-75
2024/02/17 05:09:56;;;;;;;9.85;5.80;;;;;;;10.61;100.00;101461.31;5204771;28;20352;-74
2024/02/17 05:12:26;;;;;;;14.40;5.65;;;;;;;10.68;100.00;101470.75;5205761;28;20180;-75
2024/02/17 05:14:57;;;;;;;10.63;5.35;;;;;;;10.57;100.00;101475.34;5203623;28;20040;-75
2024/02/17 05:17:27;;;;;;;9.65;5.65;;;;;;;10.61;100.00;101477.00;5206394;28;20030;-75
2024/02/17 05:19:57;;;;;;;10.07;5.22;;;;;;;10.52;100.00;101485.03;5204991;28;20030;-75
2024/02/17 05:22:28;;;;;;;11.30;5.38;;;;;;;10.44;100.00;101479.09;5204931;28;20048;-75
2024/02/17 05:24:58;;;;;;;9.10;4.97;;;;;;;10.48;100.00;101487.75;5202086;28;20026;-75
2024/02/17 05:27:28;;;;;;;10.05;4.93;;;;;;;10.54;100.00;101490.22;5202650;28;20310;-75
2024/02/17 05:29:58;;;;;;;9.65;4.70;;;;;;;10.61;100.00;101481.34;5204286;28;20048;-75
2024/02/17 05:32:30;;;;;;;8.18;4.38;;;;;;;10.57;100.00;101492.78;5204055;28;20117;-75
2024/02/17 05:35:00;;;;;;;11.05;4.95;;;;;;;10.65;100.00;101493.50;5203788;28;20199;-75
2024/02/17 05:37:30;;;;;;;11.30;4.93;;;;;;;10.66;100.00;101496.06;5207116;28;20597;-75
2024/02/17 05:40:01;;;;;;;10.48;5.28;;;;;;;10.78;100.00;101497.53;5205063;28;20036;-75
2024/02/17 05:42:32;;;;;;;12.13;5.28;;;;;;;10.72;100.00;101508.16;5207140;28;20025;-75
2024/02/17 05:45:03;;;;;;;9.30;5.05;;;;;;;10.82;100.00;101504.44;5206424;28;20024;-75
2024/02/17 05:47:33;;;;;;;9.38;5.22;;;;;;;10.87;100.00;101513.88;5204699;28;20032;-75
2024/02/17 05:50:04;;;;;;;12.05;5.32;;;;;;;10.75;100.00;101521.16;5184423;28;20489;-75
2024/02/17 05:52:34;;;;;;;10.52;5.07;;;;;;;10.76;100.00;101515.03;5207277;28;20021;-75
2024/02/17 05:55:06;;;;;;;10.50;6.00;;;;;;;10.80;100.00;101535.84;5202465;28;20025;-75
2024/02/17 05:57:36;;;;;;;11.27;4.88;;;;;;;10.79;100.00;101528.91;5204010;28;20036;-75
2024/02/17 06:00:06;;;;;;;10.98;5.57;;;;;;;10.80;100.00;101540.19;5186177;28;20032;-75
2024/02/17 06:02:37;;;;;;;11.20;5.80;;;;;;;10.88;100.00;101543.53;5206171;28;20029;-75
2024/02/17 06:05:07;;;;;;;14.10;6.35;;;;;;;10.79;100.00;101538.47;5200006;28;20029;-75
2024/02/17 06:07:38;;;;;;;10.30;5.05;;;;;;;10.84;100.00;101544.50;5203716;28;20398;-75
2024/02/17 06:10:08;;;;;;;8.90;4.88;;;;;;;10.84;100.00;101549.72;5205379;28;20021;-75
2024/02/17 06:12:39;;;;;;;9.98;4.53;;;;;;;10.71;100.00;101545.63;5207137;28;20040;-75
2024/02/17 06:15:09;;;;;;;13.80;5.10;;;;;;;10.80;100.00;101558.50;5204513;28;20029;-75
2024/02/17 06:17:42;;;;;;;9.73;4.28;;;;;;;10.71;100.00;101556.09;5204759;28;20039;-75
2024/02/17 06:23:01;;;;;;;11.52;4.70;;;;;;;10.66;100.00;101573.66;5202694;28;20171;-75
2024/02/17 06:25:33;;;;;;;10.75;5.03;;;;;;;10.52;100.00;101573.88;5205650;28;20453;-75
2024/02/17 06:28:04;;;;;;;12.60;4.78;;;;;;;10.54;100.00;101579.09;5204930;28;20020;-75
2024/02/17 06:30:37;;;;;;;11.50;4.72;;;;;;;10.57;100.00;101586.88;5203289;28;20028;-75
2024/02/17 06:33:07;;;;;;;13.60;4.97;;;;;;;10.39;100.00;101590.72;5201625;28;20078;-75
2024/02/17 06:35:39;;;;;;;9.57;4.70;;;;;;;10.39;100.00;101595.06;5204250;28;20482;-75
2024/02/17 06:38:09;;;;;;;10.88;4.38;;;;;;;10.47;100.00;101599.25;5202963;28;20025;-75
2024/02/17 06:40:40;;;;;;;6.88;3.80;;;;;;;10.47;100.00;101607.09;5201742;28;20437;-74
2024/02/17 06:43:10;;;;;;;9.63;4.30;;;;;;;10.44;100.00;101619.34;5204064;28;20029;-75
2024/02/17 06:45:40;;;;;;;8.23;3.65;;;;;;;10.51;100.00;101615.75;5208264;28;20506;-75
2024/02/17 06:48:11;;;;;;;5.85;3.35;;;;;;;10.48;99.55;101621.88;5205432;28;20060;-75
2024/02/17 06:50:41;;;;;;;8.65;3.88;;;;;;;10.51;99.48;101621.84;5206772;28;20029;-74
2024/02/17 06:53:12;;;;;;;8.43;4.00;;;;;;;10.56;98.64;101624.38;5208366;28;20025;-75
2024/02/17 06:55:42;;;;;;;6.75;3.28;;;;;;;10.60;98.13;101639.09;5189365;28;20486;-75
2024/02/17 06:58:13;;;;;;;15.10;3.92;;;;;;;10.70;97.41;101643.28;5205296;28;20036;-75
2024/02/17 07:00:44;;;;;;;6.35;3.28;;;;;;;10.67;96.14;101644.19;5207231;28;20059;-75
2024/02/17 07:03:14;;;;;;;8.57;3.15;;;;;;;10.61;96.13;101648.66;5205933;28;20398;-75
2024/02/17 07:05:45;;;;;;;6.70;2.88;;;;;;;10.64;95.11;101648.59;5203730;28;20029;-75
2024/02/17 07:08:16;;;;;;;7.57;2.97;;;;;;;10.76;95.74;101651.00;5205868;28;20017;-75
2024/02/17 07:10:47;;;;;;;8.13;3.40;;;;;;;10.77;95.90;101653.59;5183959;28;20468;-75
2024/02/17 07:13:17;;;;;;;5.88;2.95;;;;;;;10.80;95.69;101657.88;5206722;28;20083;-75
2024/02/17 07:15:48;;;;;;;9.80;2.90;;;;;;;10.85;95.98;101663.91;5204194;28;20091;-75
2024/02/17 07:18:19;;;;;;;9.38;3.55;;;;;;;10.82;95.43;101669.19;5200237;28;20033;-76
2024/02/17 07:20:49;;;;;;;7.00;2.95;;;;;;;10.84;96.45;101677.88;5200049;28;20707;-75
2024/02/17 07:23:20;;;;;;;5.93;3.33;;;;;;;10.70;96.69;101680.72;5198516;28;20037;-74
2024/02/17 07:25:51;;;;;;;7.85;3.40;;;;;;;10.85;97.22;101687.44;5202445;28;20553;-75
2024/02/17 07:28:22;;;;;;;8.57;3.45;;;;;;;10.84;97.23;101694.41;5204163;28;20025;-75
2024/02/17 07:30:52;;;;;;;5.97;3.42;;;;;;;10.85;96.67;101690.06;5204390;28;20025;-75
2024/02/17 07:33:22;;;;;;;11.52;4.00;;;;;;;10.80;97.27;101697.09;5206413;28;20124;-75
2024/02/17 07:35:52;;;;;;;5.95;2.97;;;;;;;10.85;96.86;101695.28;5203848;28;20474;-75
2024/02/17 07:38:23;;;;;;;7.25;3.30;;;;;;;10.78;97.20;101706.72;5206296;28;20029;-75
2024/02/17 07:40:53;;;;;;;6.97;3.30;;;;;;;10.81;97.88;101709.28;5205957;28;20437;-75
2024/02/17 07:43:24;;;;;;;9.05;3.63;;;;;;;10.83;97.32;101716.22;5203801;28;20124;-75
2024/02/17 07:45:54;;;;;;;8.65;3.45;;;;;;;10.86;97.00;101712.69;5203633;28;20401;-75
2024/02/17 07:48:24;;;;;;;9.32;3.80;;;;;;;10.88;96.85;101716.16;5200217;28;20033;-75
2024/02/17 07:50:55;;;;;;;11.02;3.60;;;;;;;10.85;97.11;101727.50;5199311;28;20025;-74
2024/02/17 07:53:27;;;;;;;7.82;3.53;;;;;;;10.87;97.10;101730.13;5197314;28;20086;-75
2024/02/17 07:55:57;;;;;;;7.65;3.25;;;;;;;10.71;97.17;101739.13;5206506;28;20069;-75
2024/02/17 07:58:27;;;;;;;8.32;3.83;;;;;;;10.72;97.77;101741.69;5205671;28;20110;-75
2024/02/17 08:00:59;;;;;;;9.02;3.72;;;;;;;10.76;97.80;101743.38;5205324;28;20032;-75
2024/02/17 08:03:29;;;;;;;10.32;3.65;;;;;;;10.76;97.71;101747.75;5190476;28;20041;-75
2024/02/17 08:05:59;;;;;;;9.02;4.20;;;;;;;10.74;97.99;101749.53;5206904;28;20029;-75
2024/02/17 08:08:30;;;;;;;9.13;3.58;;;;;;;10.80;97.43;101749.41;5181767;28;20045;-75
2024/02/17 08:11:00;;;;;;;24.40;8.32;;;;;;;10.79;97.63;101750.28;5200553;28;20325;-75
2024/02/17 08:13:31;;;;;;;12.13;5.28;;;;;;;10.75;98.04;101751.25;5201228;28;20577;-75
2024/02/17 08:16:02;;;;;;;11.38;4.40;;;;;;;10.83;97.56;101763.28;5205810;28;20040;-75
2024/02/17 08:18:32;;;;;;;11.43;3.85;;;;;;;10.82;97.74;101768.56;5201312;28;20447;-75
2024/02/17 08:21:03;;;;;;;7.40;3.45;;;;;;;10.91;96.50;101776.25;5201371;28;20041;-75
2024/02/17 08:23:33;;;;;;;7.82;3.20;;;;;;;10.90;96.36;101770.16;5195051;28;20358;-75
2024/02/17 08:26:05;;;;;;;7.63;3.70;;;;;;;11.02;96.86;101778.66;5198341;28;20029;-75
2024/02/17 08:28:35;;;;;;;9.93;3.80;;;;;;;11.04;97.31;101776.84;5181413;28;20491;-75
2024/02/17 08:31:06;;;;;;;6.53;3.85;;;;;;;10.96;96.87;101777.00;5202233;28;20017;-75
2024/02/17 08:33:36;;;;;;;10.13;4.13;;;;;;;11.08;96.12;101783.75;5203415;28;20510;-75
2024/02/17 08:36:06;;;;;;;7.40;3.63;;;;;;;11.11;95.91;101777.63;5202344;28;20108;-75
2024/02/17 08:38:37;;;;;;;8.27;3.58;;;;;;;11.64;93.97;101780.91;5211604;28;20043;-75
2024/02/17 08:41:07;;;;;;;8.38;3.03;;;;;;;12.02;91.38;101786.22;5180780;28;20068;-75
2024/02/17 08:43:37;;;;;;;7.00;3.47;;;;;;;12.64;88.46;101785.59;5211032;28;20558;-75
2024/02/17 08:46:08;;;;;;;10.77;3.05;;;;;;;12.45;85.86;101788.72;5205243;28;20033;-75
2024/02/17 08:48:38;;;;;;;5.55;2.42;;;;;;;12.16;85.97;101802.47;5209903;28;20124;-75
2024/02/17 08:51:08;;;;;;;8.60;4.60;;;;;;;11.92;87.20;101797.78;5206550;28;21381;-75
2024/02/17 08:53:38;;;;;;;9.32;3.97;;;;;;;11.87;87.46;101802.28;5206920;28;20083;-75
2024/02/17 08:56:09;;;;;;;8.25;3.42;;;;;;;11.70;87.48;101808.75;5210092;28;20501;-75
2024/02/17 08:58:39;;;;;;;6.10;3.45;;;;;;;11.66;88.22;101820.19;5192320;28;20028;-75
2024/02/17 09:01:09;;;;;;;5.00;2.50;;;;;;;11.68;88.37;101816.66;5205846;28;20207;-75
2024/02/17 09:03:43;;;;;;;5.90;2.17;;;;;;;11.47;88.83;101830.09;5202303;28;20631;-75
2024/02/17 09:06:13;;;;;;;6.40;3.10;;;;;;;11.46;89.77;101833.63;5204402;28;20036;-75
2024/02/17 09:08:44;;;;;;;4.05;2.10;;;;;;;11.44;89.01;101842.41;5203270;28;20026;-74
2024/02/17 09:11:14;;;;;;;6.10;2.22;;;;;;;11.38;90.68;101837.28;5185201;28;20021;-75
2024/02/17 09:13:46;;;;;;;6.30;2.53;;;;;;;11.39;90.02;101839.88;5203469;28;20116;-74
2024/02/17 09:16:17;;;;;;;5.55;2.35;;;;;;;11.41;88.86;101834.63;5201609;28;20304;-74
2024/02/17 09:18:47;;;;;;;5.75;2.28;;;;;;;11.42;89.42;101839.81;5183939;28;20510;-75
2024/02/17 09:21:17;;;;;;;7.35;2.17;;;;;;;11.42;88.74;101837.19;5200181;28;20029;-75
2024/02/17 09:23:48;;;;;;;4.57;1.80;;;;;;;11.40;88.66;101844.22;5183744;28;20487;-75
2024/02/17 09:26:18;;;;;;;5.15;2.25;;;;;;;11.43;89.63;101849.38;5201866;28;20109;-74
2024/02/17 09:28:48;;;;;;;8.35;2.92;;;;;;;11.45;90.07;101850.22;5203442;28;20106;-74
2024/02/17 09:31:19;;;;;;;8.15;2.50;;;;;;;11.51;89.43;101857.97;5186685;28;20029;-74
2024/02/17 09:33:49;;;;;;;4.85;2.40;;;;;;;11.53;89.06;101865.78;5209949;28;20104;-74
2024/02/17 09:36:20;;;;;;;7.28;2.22;;;;;;;11.53;89.15;101879.75;5205374;28;20135;-74
2024/02/17 09:38:50;;;;;;;12.52;6.07;;;;;;;11.53;88.86;101881.50;5203545;28;20033;-74
2024/02/17 09:41:20;;;;;;;17.13;6.20;;;;;;;11.29;90.32;101884.56;5207038;28;20596;-74
2024/02/17 09:43:51;;;;;;;7.85;2.67;;;;;;;11.13;91.94;101896.19;5187976;28;20083;-74
2024/02/17 09:46:25;;;;;;;10.82;3.30;;;;;;;11.19;91.24;101890.84;5181758;28;20482;-74
2024/02/17 09:49:00;;;;;;;5.03;2.63;;;;;;;11.18;90.78;101889.13;5182829;28;20045;-74
2024/02/17 09:51:31;;;;;;;5.63;2.03;;;;;;;11.22;92.14;101899.50;5199954;28;20033;-74
2024/02/17 09:54:03;;;;;;;5.35;2.78;;;;;;;11.25;90.65;101896.84;5181281;28;20682;-74
2024/02/17 09:56:34;;;;;;;5.03;2.45;;;;;;;11.22;91.23;101909.09;5203514;28;20036;-74
2024/02/17 09:59:04;;;;;;;6.07;2.67;;;;;;;11.28;90.43;101904.63;5188652;28;20037;-74
2024/02/17 10:01:34;;;;;;;6.57;2.80;;;;;;;11.23;90.60;101919.56;5223812;22;20044;-73
2024/02/17 10:04:06;;;;;;;6.85;3.03;;;;;;;11.36;90.57;101913.22;5202359;28;20043;-73
2024/02/17 10:06:36;;;;;;;7.95;4.03;;;;;;;11.47;89.32;101921.75;5198251;28;20548;-73
2024/02/17 10:09:07;;;;;;;10.23;3.33;;;;;;;11.53;88.77;101912.91;5200566;28;20053;-75
2024/02/17 10:11:38;;;;;;;5.05;2.08;;;;;;;11.40;88.84;101924.50;5206489;28;20028;-73
2024/02/17 10:14:09;;;;;;;5.32;2.50;;;;;;;11.56;88.54;101924.25;5201946;28;20474;-75
2024/02/17 10:16:39;;;;;;;6.35;3.40;;;;;;;11.82;88.71;101926.38;5203917;28;20075;-75
2024/02/17 10:19:10;;;;;;;14.10;6.30;;;;;;;11.94;87.61;101921.75;5204495;28;20033;-75
2024/02/17 10:21:40;;;;;;;6.88;2.63;;;;;;;11.94;87.19;101929.63;5197434;28;20119;-73
2024/02/17 10:24:10;;;;;;;4.88;2.38;;;;;;;11.83;85.46;101938.59;5201113;28;20087;-75
2024/02/17 10:26:42;;;;;;;4.00;1.98;;;;;;;11.82;85.90;101937.69;5198591;28;20118;-73
2024/02/17 10:29:15;;;;;;;6.00;2.00;;;;;;;11.91;85.31;101937.53;5203673;28;20035;-75
2024/02/17 10:31:47;;;;;;;5.55;2.38;;;;;;;11.98;84.75;101940.91;5198111;28;20067;-74
2024/02/17 10:34:17;;;;;;;4.65;2.05;;;;;;;11.86;85.24;101949.88;5203586;28;20033;-75
2024/02/17 10:36:50;;;;;;;5.43;2.03;;;;;;;11.98;85.67;101940.91;5208566;28;20067;-75
2024/02/17 10:39:22;;;;;;;6.00;2.05;;;;;;;12.03;84.52;101952.16;5189631;28;20449;-75
2024/02/17 10:41:52;;;;;;;5.20;2.20;;;;;;;12.23;83.62;101943.00;5205512;28;20033;-73
2024/02/17 10:44:23;;;;;;;5.13;2.30;;;;;;;12.31;83.95;101954.19;5206851;28;20119;-75
2024/02/17 10:46:54;;;;;;;5.13;2.33;;;;;;;12.24;83.88;101941.25;5205711;28;20048;-72
2024/02/17 10:49:35;;;;;;;3.83;2.00;;;;;;;12.15;82.85;101955.38;5190561;28;20033;-75
2024/02/17 10:52:08;;;;;;;4.75;1.95;;;;;;;12.13;82.98;101951.94;5203682;28;20059;-76
2024/02/17 10:54:38;;;;;;;4.60;1.98;;;;;;;12.30;83.08;101960.31;5199786;28;20017;-74
2024/02/17 10:57:13;;;;;;;6.53;2.13;;;;;;;12.48;83.07;101970.44;5199995;28;20072;-76
2024/02/17 10:59:44;;;;;;;9.40;2.13;;;;;;;12.27;82.69;101978.75;5208230;28;20287;-75
2024/02/17 11:02:18;;;;;;;3.30;1.70;;;;;;;12.21;81.96;101973.63;5206093;28;20037;-75
2024/02/17 11:04:49;;;;;;;3.80;1.73;;;;;;;12.21;81.89;101973.63;5198835;28;20029;-75
2024/02/17 11:07:20;;;;;;;2.90;2.03;;;;;;;12.29;81.90;101979.56;5205790;28;20046;-75
2024/02/17 11:10:01;;;;;;;5.80;1.50;;;;;;;12.28;81.72;101974.38;5201780;28;20051;-75
2024/02/17 11:12:34;;;;;;;6.30;2.55;;;;;;;12.60;82.28;101975.44;5205255;28;20079;-75
2024/02/17 11:15:08;;;;;;;5.38;2.35;;;;;;;12.79;80.87;101975.91;5199674;28;20071;-75
2024/02/17 11:17:41;;;;;;;6.30;2.45;;;;;;;12.75;81.43;101977.72;5205124;28;20052;-74
2024/02/17 11:20:14;;;;;;;5.82;2.33;;;;;;;12.67;81.84;101978.78;5205026;28;20021;-74
2024/02/17 11:22:52;;;;;;;4.40;2.13;;;;;;;12.45;82.39;101985.38;5206204;28;20515;-75
2024/02/17 11:25:38;;;;;;;7.97;2.42;;;;;;;12.66;82.05;101992.81;5197878;28;20037;-75
2024/02/17 11:28:29;;;;;;;6.57;2.28;;;;;;;12.47;81.42;101987.06;5197233;28;20036;-75
2024/02/17 11:31:00;;;;;;;5.43;2.13;;;;;;;12.27;82.44;101988.38;5199722;28;20415;-75
2024/02/17 11:33:31;;;;;;;5.00;2.38;;;;;;;12.34;82.56;101992.59;5181955;28;20053;-75
2024/02/17 11:36:03;;;;;;;4.30;2.20;;;;;;;12.21;82.45;101988.47;5197568;28;20102;-75